RCTP/TPE METAR and TAF weather

Enter ICAO airport designator
Station Type Date Time Source
RCTP METAR 2019/02/20 17:00 UTC NOAA

RCTP 201700Z 04009KT 4000 BR SCT003 BKN004 BKN015 20/20 Q1021 NOSIG RMK A3015


Station Type Date Time Source
RCTP Decoded METAR 2019/02/20 17:00 UTC NOAA

Chiang Kai Shek, Taiwan (RCTP) 25-05N 121-13E
Feb 20, 2019 - 12:00 PM EST / 2019.02.20 1700 UTC
Wind: from the NE (040 degrees) at 10 MPH (9 KT):0
Visibility: 2 mile(s):0
Sky conditions: mostly cloudy
Weather: mist
Temperature: 68 F (20 C)
Dew Point: 68 F (20 C)
Relative Humidity: 100%
Pressure (altimeter): 30.15 in. Hg (1021 hPa)
ob: RCTP 201700Z 04009KT 4000 BR SCT003 BKN004 BKN015 20/20 Q1021 NOSIG RMK A3015
cycle: 17

Station Type Date Time Source
RCTP TAF 2019/02/20 18:14 UTC NOAA

TAF RCTP 201700Z 2018/2124 05008KT 4000 BR SCT004 BKN006
TEMPO 2018/2023 03013KT 2400 DZ BR SCT002 BKN003
BECMG 2023/2101 04013KT 6000 NSW SCT006 BKN008
TEMPO 2102/2108 SCT007 BKN012
BECMG 2108/2110 01008KT 5000 BR FEW008 BKN018
TEMPO 2114/2120 32010KT 2800 RA BR SCT006 BKN011


Example: see airport list